This is the latest recevied weather packets stored in our database for station/object DC4THF-13. If no packets are shown the sender has not sent any weather packets the latest 10 day(s).
| Time | Temp. | Humidity | Pressure | Rain* | Wind** | Luminosity | Snow |
|---|---|---|---|---|---|---|---|
| 1777870957 | 14.44° C | 73% | 1006.6 hPa | 0.25 mm | - | - | - |
| 1777870354 | 14.44° C | 74% | 1006.5 hPa | 0.25 mm | - | - | - |
| 1777869751 | 13.89° C | 73% | 1006.5 hPa | 0.25 mm | - | - | - |
| 1777869147 | 14.44° C | 71% | 1006.5 hPa | 0.25 mm | - | - | - |
| 1777868543 | 14.44° C | 70% | 1006.4 hPa | 0.25 mm | - | - | - |
| 1777867939 | 14.44° C | 71% | 1006.3 hPa | 0 mm | - | - | - |
| 1777867395 | 14.44° C | 71% | 1006.2 hPa | 0 mm | - | - | - |
| 1777866792 | 14.44° C | 70% | 1006 hPa | 0 mm | - | - | - |
| 1777866187 | 15° C | 68% | 1005.8 hPa | 0 mm | - | - | - |
| 1777865584 | 15° C | 66% | 1006 hPa | 0 mm | - | - | - |
| 1777864981 | 15.56° C | 62% | 1006.2 hPa | 0 mm | - | - | - |
| 1777864378 | 15.56° C | 61% | 1006.1 hPa | 0 mm | - | - | - |
| 1777863775 | 16.11° C | 59% | 1006.2 hPa | 0 mm | - | - | - |
| 1777863171 | 16.11° C | 54% | 1006.2 hPa | 0 mm | - | - | - |
| 1777862568 | 16.67° C | 52% | 1006.1 hPa | 0 mm | - | - | - |
| 1777861965 | 16.67° C | 51% | 1006.2 hPa | 0 mm | - | - | - |
| 1777861362 | 16.67° C | 51% | 1006.2 hPa | 0 mm | - | - | - |
| 1777860759 | 16.67° C | 51% | 1006.4 hPa | 0 mm | - | - | - |
| 1777860157 | 16.67° C | 51% | 1006.3 hPa | 0 mm | - | - | - |
| 1777859552 | 16.67° C | 51% | 1006 hPa | 0 mm | - | - | - |
| 1777858949 | 16.67° C | 51% | 1005.9 hPa | 0 mm | - | - | - |
| 1777858346 | 16.67° C | 50% | 1005.9 hPa | 0 mm | - | - | - |
| 1777857743 | 16.67° C | 50% | 1005.8 hPa | 0 mm | - | - | - |
| 1777857139 | 17.22° C | 49% | 1005.7 hPa | 0 mm | - | - | - |
| 1777856536 | 17.78° C | 43% | 1005.4 hPa | 0 mm | - | - | - |
* Rain latest hour (hover to see other rain measurements)
** Current wind speed in m/s (hover to see current wind gust speed)